Terminal Aerodrome Forecast
Issued by NWS Sioux Falls, SD

Home | Current Version | Previous Version | Text Only | Print | Product List | Glossary On
Versions: 1 2 3 4 5 6 7 8 9 10 11 12 13 14 15 16 17
000
FTUS43 KFSD 241317 AAA
TAFHON
TAF AMD
KHON 241317Z 2413/2512 VRB03KT 3SM BR SCT025 BKN035
     FM241500 VRB03KT P6SM SCT050
     FM250000 15010KT P6SM FEW250
     FM250700 14012G21KT P6SM FEW250
     FM250900 15013G22KT P6SM SCT200 WS010/17040KT=

USA.gov is the U.S. government's official web portal to all federal, state and local government web resources and services.